Time;durP1;ratioP1;P1;durP2;ratioP2;P2;SDS_P1;SDS_P2;PMS_P1;PMS_P2;Temp;Humidity;BMP_temperature;BMP_pressure;BME280_temperature;BME280_humidity;BME280_pressure;Samples;Min_cycle;Max_cycle;Signal;HPM_P1;HPM_P2
2023/11/24 00:01:01;;;;;;;9.85;2.00;;;;;;;6.96;93.59;99972.78;7393631;19;20376;-64
2023/11/24 00:03:27;;;;;;;9.77;2.10;;;;;;;7.00;93.85;99959.09;7392229;19;20368;-64
2023/11/24 00:05:56;;;;;;;11.13;3.00;;;;;;;6.96;93.66;99981.53;7395198;19;20393;-63
2023/11/24 00:08:23;;;;;;;11.03;2.40;;;;;;;6.98;93.77;99961.09;7394144;19;20356;-63
2023/11/24 00:10:50;;;;;;;10.52;2.42;;;;;;;6.92;93.75;99944.13;7396298;19;20429;-63
2023/11/24 00:13:18;;;;;;;9.40;2.47;;;;;;;6.89;93.57;99978.75;7395782;19;20427;-64
2023/11/24 00:15:46;;;;;;;8.85;2.13;;;;;;;6.86;93.46;99942.16;7394359;19;20345;-63
2023/11/24 00:18:14;;;;;;;11.65;2.58;;;;;;;6.86;93.83;99963.25;7394727;19;20365;-62
2023/11/24 00:20:41;;;;;;;9.35;2.45;;;;;;;6.82;93.62;99950.56;7396863;19;20376;-63
2023/11/24 00:23:07;;;;;;;12.02;2.72;;;;;;;6.82;93.93;99959.31;7394435;19;20352;-63
2023/11/24 00:25:35;;;;;;;10.35;2.67;;;;;;;6.82;93.93;99969.03;7395885;19;20385;-62
2023/11/24 00:28:04;;;;;;;10.52;2.50;;;;;;;6.81;93.65;99960.31;7394275;19;20416;-63
2023/11/24 00:30:32;;;;;;;10.98;2.75;;;;;;;6.84;94.11;99959.13;7394513;19;20383;-63
2023/11/24 00:33:01;;;;;;;14.68;2.80;;;;;;;6.85;94.05;99961.63;7393533;19;20348;-63
2023/11/24 00:35:31;;;;;;;13.10;3.00;;;;;;;6.89;94.31;99972.66;7396663;19;20373;-63
2023/11/24 00:37:58;;;;;;;14.18;3.10;;;;;;;6.90;94.36;99979.56;7394344;19;20378;-64
2023/11/24 00:40:25;;;;;;;13.55;3.25;;;;;;;6.90;93.97;99955.81;7396576;19;20871;-63
2023/11/24 00:42:51;;;;;;;12.10;2.90;;;;;;;6.92;93.64;99973.13;7394245;19;20385;-63
2023/11/24 00:45:18;;;;;;;13.38;3.42;;;;;;;6.92;92.72;99988.94;7396127;19;20904;-66
2023/11/24 00:47:46;;;;;;;14.50;3.13;;;;;;;6.97;93.03;99967.38;7393871;19;20393;-63
2023/11/24 00:50:14;;;;;;;13.77;2.70;;;;;;;6.93;91.10;99974.78;7391610;19;20408;-63
2023/11/24 00:52:40;;;;;;;13.07;2.97;;;;;;;6.93;90.33;99966.88;7394762;19;20359;-63
2023/11/24 00:55:08;;;;;;;10.57;2.97;;;;;;;6.92;90.47;99974.94;7393228;19;20352;-63
2023/11/24 00:57:36;;;;;;;10.75;2.67;;;;;;;6.90;90.44;99963.75;7392901;19;20389;-62
2023/11/24 01:00:07;;;;;;;12.35;2.67;;;;;;;6.88;90.45;99966.53;7396711;19;20381;-60
2023/11/24 01:02:36;;;;;;;12.10;2.42;;;;;;;6.84;91.09;99967.88;7391900;19;20381;-61
2023/11/24 01:05:04;;;;;;;11.18;2.53;;;;;;;6.83;91.48;99974.13;7394289;19;20360;-60
2023/11/24 01:07:31;;;;;;;13.50;2.57;;;;;;;6.75;90.88;99979.44;7391307;19;20375;-60
2023/11/24 01:09:58;;;;;;;9.13;2.42;;;;;;;6.70;90.12;99981.75;7387313;19;20375;-60
2023/11/24 01:12:25;;;;;;;8.52;2.40;;;;;;;6.66;89.05;99990.97;7389684;19;20382;-62
2023/11/24 01:14:52;;;;;;;13.05;2.85;;;;;;;6.65;87.50;99965.59;7395220;19;20364;-61
2023/11/24 01:17:20;;;;;;;9.80;2.42;;;;;;;6.67;88.49;99966.25;7395714;19;20665;-61
2023/11/24 01:19:48;;;;;;;13.32;2.72;;;;;;;6.63;88.12;99976.34;7394129;19;20372;-62
2023/11/24 01:22:15;;;;;;;12.13;3.00;;;;;;;6.57;87.09;99981.41;7390287;19;20383;-62
2023/11/24 01:24:44;;;;;;;14.32;2.88;;;;;;;6.53;86.93;99971.22;7393820;19;20424;-61
2023/11/24 01:27:12;;;;;;;12.82;2.95;;;;;;;6.53;87.72;99973.03;7393887;19;20913;-61
2023/11/24 01:29:39;;;;;;;12.07;2.72;;;;;;;6.45;86.99;99994.94;7390672;19;20376;-61
2023/11/24 01:32:06;;;;;;;12.88;3.00;;;;;;;6.47;87.50;99995.59;7390290;19;20431;-59
2023/11/24 01:34:33;;;;;;;13.43;3.67;;;;;;;6.48;87.46;99981.44;7391629;19;20332;-62
2023/11/24 01:37:00;;;;;;;14.82;3.60;;;;;;;6.49;87.62;99966.47;7392966;19;20679;-62
2023/11/24 01:39:26;;;;;;;10.50;2.78;;;;;;;6.43;87.37;99967.94;7389722;19;20344;-62
2023/11/24 01:41:54;;;;;;;13.73;3.28;;;;;;;6.46;87.86;99961.50;7392886;19;20365;-61
2023/11/24 01:44:22;;;;;;;16.17;3.58;;;;;;;6.44;88.69;99951.16;7393322;19;20428;-61
2023/11/24 01:46:49;;;;;;;13.98;3.38;;;;;;;6.41;88.95;99934.84;7393916;19;20360;-61
2023/11/24 01:49:16;;;;;;;14.55;3.08;;;;;;;6.36;89.35;99950.34;7389960;19;20377;-60
2023/11/24 01:51:43;;;;;;;17.95;3.40;;;;;;;6.33;89.66;99940.94;7391141;19;20378;-61
2023/11/24 01:54:11;;;;;;;12.38;3.08;;;;;;;6.30;90.07;99934.19;7393421;19;20360;-62
2023/11/24 01:56:38;;;;;;;12.55;2.90;;;;;;;6.30;90.27;99962.34;7393290;19;20371;-61
2023/11/24 01:59:05;;;;;;;13.55;3.03;;;;;;;6.24;90.44;99958.56;7390963;19;20376;-61
2023/11/24 02:01:33;;;;;;;14.82;3.50;;;;;;;6.22;90.92;99944.72;7391300;19;20369;-61
2023/11/24 02:04:01;;;;;;;11.38;2.97;;;;;;;6.18;91.01;99927.59;7389909;19;20633;-61
2023/11/24 02:06:28;;;;;;;10.48;3.05;;;;;;;6.17;91.17;99918.06;7389286;19;20904;-61
2023/11/24 02:08:55;;;;;;;13.85;2.95;;;;;;;6.16;91.02;99923.50;7390866;19;20376;-61
2023/11/24 02:11:22;;;;;;;14.77;3.67;;;;;;;6.12;91.10;99912.50;7392461;19;20424;-61
2023/11/24 02:13:49;;;;;;;11.95;3.25;;;;;;;6.10;91.12;99923.19;7393032;19;20944;-61
2023/11/24 02:16:16;;;;;;;18.33;4.03;;;;;;;6.15;90.88;99912.16;7392365;19;20393;-61
2023/11/24 02:18:44;;;;;;;14.70;3.70;;;;;;;6.12;90.34;99960.72;7386698;19;20407;-60
2023/11/24 02:21:11;;;;;;;17.05;3.80;;;;;;;6.18;90.00;99900.47;7387627;19;20352;-60
2023/11/24 02:23:37;;;;;;;14.82;4.20;;;;;;;6.16;89.81;99912.97;7385697;19;20340;-61
2023/11/24 02:26:04;;;;;;;15.77;3.70;;;;;;;6.17;89.31;99910.19;7391240;19;20427;-60
2023/11/24 02:28:31;;;;;;;15.57;4.10;;;;;;;6.23;89.18;99919.22;7388633;19;20379;-60
2023/11/24 02:31:00;;;;;;;16.80;3.78;;;;;;;6.27;89.00;99917.91;7390231;19;20371;-60
2023/11/24 02:33:27;;;;;;;15.33;3.70;;;;;;;6.29;88.40;99918.53;7387585;19;20848;-60
2023/11/24 02:35:54;;;;;;;21.52;4.22;;;;;;;6.26;88.32;99903.09;7387363;19;20401;-60
2023/11/24 02:38:21;;;;;;;15.93;3.80;;;;;;;6.24;87.89;99905.06;7388263;19;20394;-61
2023/11/24 02:40:49;;;;;;;15.87;4.07;;;;;;;6.26;88.07;99919.72;7389960;19;20411;-59
2023/11/24 02:43:16;;;;;;;15.73;3.80;;;;;;;6.20;87.87;99925.63;7390951;19;20340;-61
2023/11/24 02:45:42;;;;;;;21.30;4.93;;;;;;;6.22;87.82;99912.31;7391291;19;20344;-60
2023/11/24 02:48:10;;;;;;;15.90;4.10;;;;;;;6.20;87.72;99924.81;7390721;19;20905;-60
2023/11/24 02:50:37;;;;;;;17.00;3.83;;;;;;;6.17;88.03;99907.53;7388590;19;20376;-60
2023/11/24 02:53:04;;;;;;;17.02;3.72;;;;;;;6.14;87.78;99910.50;7391508;19;20360;-59
2023/11/24 02:55:32;;;;;;;17.92;4.40;;;;;;;6.18;87.58;99916.25;7389283;19;20344;-60
2023/11/24 02:58:01;;;;;;;18.33;4.20;;;;;;;6.16;87.83;99903.25;7387672;19;20687;-60
2023/11/24 03:00:27;;;;;;;17.38;4.10;;;;;;;6.17;87.84;99896.19;7389887;19;20391;-59
2023/11/24 03:02:54;;;;;;;15.13;3.97;;;;;;;6.16;87.10;99897.16;7389483;19;20337;-60
2023/11/24 03:05:21;;;;;;;18.85;4.72;;;;;;;6.23;87.35;99900.81;7390674;19;20381;-61
2023/11/24 03:07:48;;;;;;;15.93;3.95;;;;;;;6.25;87.13;99912.00;7387551;19;20379;-59
2023/11/24 03:10:15;;;;;;;19.30;4.53;;;;;;;6.28;87.19;99914.28;7390162;19;20842;-61
2023/11/24 03:12:42;;;;;;;16.67;4.07;;;;;;;6.23;87.59;99892.91;7390138;19;20811;-60
2023/11/24 03:15:11;;;;;;;14.82;3.83;;;;;;;6.18;87.54;99876.75;7390295;19;20355;-59
2023/11/24 03:17:38;;;;;;;14.23;3.92;;;;;;;6.13;87.00;99891.25;7388848;19;20364;-60
2023/11/24 03:20:05;;;;;;;17.45;4.32;;;;;;;6.15;86.95;99870.03;7388555;19;20971;-58
2023/11/24 03:22:32;;;;;;;17.10;4.13;;;;;;;6.17;86.88;99894.38;7390046;19;20372;-59
2023/11/24 03:24:59;;;;;;;18.20;4.10;;;;;;;6.18;86.74;99884.66;7386800;19;20352;-58
2023/11/24 03:27:27;;;;;;;16.20;3.95;;;;;;;6.15;87.03;99895.53;7383848;19;20732;-59
2023/11/24 03:29:54;;;;;;;19.10;3.97;;;;;;;6.19;86.96;99886.31;7388705;19;20345;-58
2023/11/24 03:32:21;;;;;;;16.45;4.00;;;;;;;6.18;86.49;99900.47;7391566;19;20351;-57
2023/11/24 03:34:48;;;;;;;19.65;4.38;;;;;;;6.22;86.76;99893.88;7398248;19;20373;-60
2023/11/24 03:37:15;;;;;;;18.27;4.07;;;;;;;6.24;88.92;99926.13;7395208;19;20389;-60
2023/11/24 03:39:42;;;;;;;13.50;3.92;;;;;;;6.11;88.59;99898.47;7396627;19;20338;-60
2023/11/24 03:42:09;;;;;;;14.40;3.60;;;;;;;6.01;90.40;99876.75;7396001;19;20901;-61
2023/11/24 03:44:38;;;;;;;14.38;3.55;;;;;;;5.88;91.17;99906.19;7397479;19;20372;-63
2023/11/24 03:47:05;;;;;;;18.60;4.23;;;;;;;5.79;91.59;99866.88;7392284;19;20364;-64
2023/11/24 03:49:32;;;;;;;19.30;4.68;;;;;;;5.78;92.91;99862.59;7395761;19;20360;-64
2023/11/24 03:51:59;;;;;;;17.70;4.25;;;;;;;5.72;93.57;99874.63;7396759;19;20396;-64
2023/11/24 03:54:26;;;;;;;22.70;5.05;;;;;;;5.69;94.33;99873.09;7394480;19;20336;-64
2023/11/24 03:56:53;;;;;;;19.20;4.40;;;;;;;5.69;92.98;99881.00;7396467;19;20373;-64
2023/11/24 03:59:20;;;;;;;22.40;4.20;;;;;;;5.73;93.48;99861.28;7393257;19;20675;-64
2023/11/24 04:01:47;;;;;;;19.13;4.20;;;;;;;5.72;94.02;99859.63;7394977;19;20389;-66
2023/11/24 04:04:14;;;;;;;18.48;3.78;;;;;;;5.70;93.35;99858.16;7394755;19;20376;-65
2023/11/24 04:06:41;;;;;;;19.45;4.20;;;;;;;5.72;94.20;99843.84;7395879;19;20372;-65
2023/11/24 04:09:09;;;;;;;18.05;4.35;;;;;;;5.71;94.41;99842.19;7395500;19;20341;-67
2023/11/24 04:11:37;;;;;;;19.33;4.78;;;;;;;5.71;94.96;99844.81;7389470;19;20399;-66
2023/11/24 04:14:03;;;;;;;21.67;4.83;;;;;;;5.70;95.50;99834.47;7398533;19;20400;-67
2023/11/24 04:16:30;;;;;;;22.17;4.70;;;;;;;5.70;95.85;99851.09;7395535;19;20865;-67
2023/11/24 04:18:57;;;;;;;19.80;4.43;;;;;;;5.67;96.11;99843.53;7396707;19;20347;-67
2023/11/24 04:21:24;;;;;;;24.73;5.22;;;;;;;5.68;97.03;99842.53;7395506;19;20356;-68
2023/11/24 04:23:51;;;;;;;20.67;4.38;;;;;;;5.62;96.97;99861.59;7393276;19;20368;-68
2023/11/24 04:26:18;;;;;;;15.32;3.72;;;;;;;5.50;97.47;99861.13;7393104;19;21233;-67
2023/11/24 04:28:45;;;;;;;17.88;4.38;;;;;;;5.40;97.92;99864.84;7392604;19;20952;-68
2023/11/24 04:31:15;;;;;;;23.77;5.43;;;;;;;5.34;98.46;99849.75;7389887;19;21324;-67
2023/11/24 04:33:42;;;;;;;17.77;4.40;;;;;;;5.24;98.41;99849.88;7392358;19;20692;-67
2023/11/24 04:36:11;;;;;;;17.88;3.70;;;;;;;5.20;97.31;99849.34;7392101;19;20345;-67
2023/11/24 04:38:38;;;;;;;14.73;3.50;;;;;;;5.21;97.25;99834.44;7394567;19;20443;-67
2023/11/24 04:41:06;;;;;;;17.27;4.13;;;;;;;5.23;97.85;99848.25;7393402;19;20363;-66
2023/11/24 04:43:33;;;;;;;15.25;3.47;;;;;;;5.21;97.18;99842.31;7391408;19;20365;-67
2023/11/24 04:45:59;;;;;;;14.65;3.40;;;;;;;5.20;97.71;99844.09;7393990;19;20341;-67
2023/11/24 04:48:26;;;;;;;16.17;3.53;;;;;;;5.13;97.84;99843.13;7394765;19;20376;-66
2023/11/24 04:50:53;;;;;;;17.80;3.97;;;;;;;5.14;98.26;99826.34;7392252;19;20424;-66
2023/11/24 04:53:20;;;;;;;14.52;3.35;;;;;;;5.06;99.01;99821.09;7392465;19;20671;-66
2023/11/24 04:55:46;;;;;;;15.32;3.72;;;;;;;5.02;99.33;99830.28;7391948;19;20376;-66
2023/11/24 04:58:14;;;;;;;15.38;3.95;;;;;;;5.02;99.44;99831.09;7392312;19;20365;-66
2023/11/24 05:00:40;;;;;;;18.80;4.22;;;;;;;5.03;100.00;99827.47;7393009;19;20336;-66
2023/11/24 05:03:10;;;;;;;13.90;3.65;;;;;;;5.03;99.77;99826.66;7388493;19;20381;-65
2023/11/24 05:05:38;;;;;;;20.83;3.97;;;;;;;5.07;99.89;99823.53;7392021;19;20387;-65
2023/11/24 05:08:05;;;;;;;17.90;4.20;;;;;;;5.07;99.61;99828.78;7393175;19;20388;-66
2023/11/24 05:10:32;;;;;;;16.48;3.90;;;;;;;5.07;99.21;99818.28;7391112;19;20379;-65
2023/11/24 05:12:59;;;;;;;17.38;3.47;;;;;;;5.08;99.04;99834.91;7392811;19;20391;-66
2023/11/24 05:15:25;;;;;;;15.55;3.65;;;;;;;5.06;99.04;99818.47;7391195;19;20381;-66
2023/11/24 05:17:52;;;;;;;16.42;3.83;;;;;;;5.07;98.74;99822.72;7392840;19;20359;-65
2023/11/24 05:20:23;;;;;;;15.57;3.42;;;;;;;5.05;98.36;99811.53;7392036;19;20360;-66
2023/11/24 05:22:50;;;;;;;11.20;2.97;;;;;;;5.01;98.07;99829.44;7392842;19;20336;-65
2023/11/24 05:25:17;;;;;;;14.40;2.97;;;;;;;5.00;97.97;99827.81;7392689;19;20408;-65
2023/11/24 05:27:44;;;;;;;11.00;2.70;;;;;;;4.96;97.28;99796.75;7392447;19;20348;-65
2023/11/24 05:30:11;;;;;;;15.48;3.10;;;;;;;4.96;97.49;99804.63;7394070;19;20721;-65
2023/11/24 05:32:38;;;;;;;9.73;2.65;;;;;;;4.96;97.38;99796.75;7394135;19;21231;-65
2023/11/24 05:35:05;;;;;;;11.15;2.95;;;;;;;4.95;97.31;99806.44;7395525;19;20702;-65
2023/11/24 05:37:32;;;;;;;11.18;2.30;;;;;;;4.87;97.01;99798.53;7392910;19;20384;-65
2023/11/24 05:40:01;;;;;;;10.27;2.53;;;;;;;4.88;97.41;99782.59;7393823;19;20336;-66
2023/11/24 05:42:28;;;;;;;11.23;2.78;;;;;;;4.85;96.87;99788.16;7395294;19;20863;-65
2023/11/24 05:44:55;;;;;;;7.97;2.15;;;;;;;4.85;96.87;99792.63;7394669;19;20347;-64
2023/11/24 05:47:22;;;;;;;8.63;1.97;;;;;;;4.80;96.74;99795.72;7393737;19;20384;-64
2023/11/24 05:49:51;;;;;;;6.32;1.40;;;;;;;4.78;96.62;99791.59;7394942;19;20356;-65
2023/11/24 05:52:20;;;;;;;6.90;1.88;;;;;;;4.77;96.07;99780.25;7389468;19;20397;-65
2023/11/24 05:54:48;;;;;;;5.15;1.40;;;;;;;4.75;96.14;99771.72;7393254;19;21072;-65
2023/11/24 05:57:15;;;;;;;7.93;1.90;;;;;;;4.74;96.38;99787.63;7385943;19;20381;-65
2023/11/24 05:59:42;;;;;;;5.95;1.50;;;;;;;4.74;96.86;99800.78;7386522;19;20364;-65
2023/11/24 06:02:09;;;;;;;6.03;1.40;;;;;;;4.67;97.24;99822.41;7387158;19;20392;-65
2023/11/24 06:04:36;;;;;;;8.90;1.80;;;;;;;4.66;97.30;99818.16;7392875;19;20336;-65
2023/11/24 06:07:04;;;;;;;8.52;1.88;;;;;;;4.68;97.44;99791.75;7391533;19;20359;-65
2023/11/24 06:09:32;;;;;;;5.00;1.50;;;;;;;4.63;97.58;99783.50;7391767;19;20384;-65
2023/11/24 06:11:59;;;;;;;7.57;1.75;;;;;;;4.59;97.70;99785.63;7389370;19;20384;-64
2023/11/24 06:14:26;;;;;;;7.13;2.17;;;;;;;4.60;97.66;99789.06;7390839;19;20393;-65
2023/11/24 06:16:53;;;;;;;9.90;2.20;;;;;;;4.54;98.01;99792.34;7394030;19;20357;-65
2023/11/24 06:19:20;;;;;;;8.30;2.13;;;;;;;4.49;97.76;99792.81;7390553;19;20871;-65
2023/11/24 06:21:46;;;;;;;7.53;2.00;;;;;;;4.49;97.86;99772.63;7388093;19;20424;-65
2023/11/24 06:24:13;;;;;;;9.30;2.08;;;;;;;4.48;97.59;99778.88;7393210;19;20372;-66
2023/11/24 06:26:40;;;;;;;8.82;2.20;;;;;;;4.48;97.72;99776.25;7388941;19;20908;-65
2023/11/24 06:29:08;;;;;;;8.95;2.30;;;;;;;4.47;97.93;99779.81;7389215;19;20351;-64
2023/11/24 06:31:34;;;;;;;9.13;2.47;;;;;;;4.49;97.83;99785.75;7385280;19;20368;-64
2023/11/24 06:34:01;;;;;;;8.27;2.17;;;;;;;4.53;97.85;99803.81;7387043;19;20402;-65
2023/11/24 06:36:29;;;;;;;8.07;2.45;;;;;;;4.59;97.36;99784.78;7390877;19;20739;-64
2023/11/24 06:38:59;;;;;;;9.73;2.55;;;;;;;4.66;97.10;99773.50;7392138;19;20822;-64
2023/11/24 06:41:25;;;;;;;10.38;2.45;;;;;;;4.68;96.26;99799.63;7389167;19;20340;-64
2023/11/24 06:43:52;;;;;;;8.85;2.78;;;;;;;4.73;95.95;99778.13;7392802;19;20372;-64
2023/11/24 06:46:19;;;;;;;8.80;2.30;;;;;;;4.79;95.72;99785.38;7390829;19;20420;-65
2023/11/24 06:48:47;;;;;;;10.18;2.47;;;;;;;4.83;95.67;99784.88;7390921;19;20356;-65
2023/11/24 06:51:13;;;;;;;6.20;2.20;;;;;;;4.82;95.32;99793.72;7388393;19;20368;-64
2023/11/24 06:53:40;;;;;;;10.10;2.28;;;;;;;4.87;95.03;99790.66;7389367;19;20372;-65
2023/11/24 06:56:07;;;;;;;10.75;2.42;;;;;;;4.90;94.55;99785.88;7389683;19;20420;-64
2023/11/24 06:58:34;;;;;;;6.72;2.03;;;;;;;4.92;94.60;99783.09;7389817;19;20416;-64
2023/11/24 07:01:01;;;;;;;8.18;2.08;;;;;;;4.96;94.38;99810.69;7390688;19;20411;-65
2023/11/24 07:03:28;;;;;;;7.38;2.22;;;;;;;4.97;94.46;99793.94;7387361;19;20368;-65
2023/11/24 07:05:55;;;;;;;8.40;1.90;;;;;;;4.98;93.51;99792.97;7395057;19;20369;-65
2023/11/24 07:08:22;;;;;;;7.00;2.17;;;;;;;5.00;93.68;99795.44;7398070;19;20360;-65
2023/11/24 07:10:48;;;;;;;5.45;1.58;;;;;;;4.97;93.25;99812.34;7391496;19;20348;-64
2023/11/24 07:13:15;;;;;;;9.37;2.17;;;;;;;5.01;92.78;99807.59;7398294;19;20409;-64
2023/11/24 07:15:42;;;;;;;9.63;2.10;;;;;;;4.99;93.04;99815.63;7395190;19;20376;-65
2023/11/24 07:18:09;;;;;;;7.77;2.27;;;;;;;5.02;92.74;99798.72;7395998;19;20427;-65
2023/11/24 07:20:36;;;;;;;9.20;2.10;;;;;;;5.02;92.66;99786.41;7398373;19;20379;-64
2023/11/24 07:23:03;;;;;;;6.32;1.90;;;;;;;5.07;92.72;99796.44;7398771;19;20344;-65
2023/11/24 07:25:30;;;;;;;7.20;1.52;;;;;;;5.04;92.60;99812.53;7395403;19;20420;-65
2023/11/24 07:27:57;;;;;;;6.93;1.70;;;;;;;5.07;92.45;99799.06;7395332;19;20922;-64
2023/11/24 07:30:25;;;;;;;8.98;1.90;;;;;;;5.09;92.96;99800.53;7393804;19;20356;-65
2023/11/24 07:32:52;;;;;;;8.87;2.03;;;;;;;5.10;92.90;99811.91;7395480;19;20484;-63
2023/11/24 07:35:19;;;;;;;8.48;1.60;;;;;;;5.04;92.90;99799.41;7395141;19;20444;-64
2023/11/24 07:37:46;;;;;;;8.63;1.80;;;;;;;5.05;93.25;99798.41;7395523;19;20377;-64
2023/11/24 07:40:16;;;;;;;7.00;1.95;;;;;;;5.03;92.82;99810.88;7396458;19;20364;-64
2023/11/24 07:42:43;;;;;;;8.82;2.35;;;;;;;5.02;93.65;99804.00;7397608;19;20372;-64
2023/11/24 07:45:12;;;;;;;9.20;2.20;;;;;;;5.04;93.86;99809.91;7391234;19;20884;-65
2023/11/24 07:47:39;;;;;;;7.28;1.88;;;;;;;4.98;92.79;99819.25;7396672;19;20425;-64
2023/11/24 07:50:07;;;;;;;7.18;2.10;;;;;;;5.03;92.82;99774.91;7397563;19;20356;-64
2023/11/24 07:52:34;;;;;;;9.85;2.20;;;;;;;5.02;92.78;99783.78;7393758;19;20376;-65
2023/11/24 07:55:02;;;;;;;8.48;2.10;;;;;;;5.06;92.92;99773.78;7396895;19;20364;-65
2023/11/24 07:57:29;;;;;;;8.00;2.30;;;;;;;5.09;92.73;99769.00;7396624;19;20886;-65
2023/11/24 07:59:56;;;;;;;9.05;2.05;;;;;;;5.09;92.38;99768.19;7396785;19;20971;-64
2023/11/24 08:02:23;;;;;;;8.20;2.03;;;;;;;5.18;92.34;99761.94;7391772;19;20359;-65
2023/11/24 08:04:50;;;;;;;9.02;2.20;;;;;;;5.22;92.46;99742.22;7395875;19;20711;-65
2023/11/24 08:07:21;;;;;;;7.47;2.30;;;;;;;5.28;92.55;99741.56;7396850;19;20340;-65
2023/11/24 08:09:48;;;;;;;10.23;2.15;;;;;;;5.31;92.17;99751.78;7396695;19;20365;-64
2023/11/24 08:12:16;;;;;;;9.40;2.45;;;;;;;5.30;91.72;99744.03;7397201;19;20379;-64
2023/11/24 08:14:43;;;;;;;8.90;2.17;;;;;;;5.34;91.72;99741.91;7395891;19;20414;-64
2023/11/24 08:17:10;;;;;;;9.50;2.80;;;;;;;5.32;91.28;99735.00;7395049;19;20700;-64
2023/11/24 08:19:37;;;;;;;8.93;2.40;;;;;;;5.31;91.51;99750.94;7391338;19;20411;-64
2023/11/24 08:22:04;;;;;;;7.00;2.05;;;;;;;5.34;90.94;99734.84;7395330;19;20757;-65
2023/11/24 08:24:36;;;;;;;9.00;2.58;;;;;;;5.42;90.86;99748.00;7394828;19;20685;-64
2023/11/24 08:27:04;;;;;;;10.45;2.13;;;;;;;5.35;90.79;99736.47;7396705;19;20372;-64
2023/11/24 08:29:31;;;;;;;10.13;2.53;;;;;;;5.38;90.41;99737.97;7395762;19;20368;-64
2023/11/24 08:31:59;;;;;;;7.43;2.08;;;;;;;5.34;89.80;99734.03;7392784;19;20361;-64
2023/11/24 08:34:26;;;;;;;8.17;2.43;;;;;;;5.33;90.02;99720.03;7396186;19;20393;-64
2023/11/24 08:36:53;;;;;;;7.40;2.13;;;;;;;5.31;88.96;99729.91;7398182;19;20435;-64
2023/11/24 08:39:21;;;;;;;7.85;2.05;;;;;;;5.28;89.66;99727.59;7394252;19;20348;-64
2023/11/24 08:41:48;;;;;;;7.10;1.83;;;;;;;5.27;90.61;99718.06;7394489;19;20372;-64
2023/11/24 08:44:16;;;;;;;8.55;1.95;;;;;;;5.20;91.02;99723.16;7395504;19;20706;-63
2023/11/24 08:46:43;;;;;;;6.32;1.85;;;;;;;5.18;91.04;99719.88;7395753;19;20364;-63
2023/11/24 08:49:10;;;;;;;10.23;2.38;;;;;;;5.10;90.81;99712.00;7394937;19;20918;-64
2023/11/24 08:51:39;;;;;;;7.88;1.92;;;;;;;5.14;90.57;99712.47;7394449;19;20902;-63
2023/11/24 08:54:09;;;;;;;6.47;1.67;;;;;;;5.13;90.41;99695.88;7394668;19;20348;-64
2023/11/24 08:56:38;;;;;;;4.93;1.60;;;;;;;5.11;90.00;99682.09;7395521;19;20806;-63
2023/11/24 08:59:08;;;;;;;6.40;1.83;;;;;;;5.21;90.16;99688.00;7394650;19;20508;-63
2023/11/24 09:01:36;;;;;;;9.35;2.28;;;;;;;5.25;89.91;99694.59;7395069;19;20379;-62
2023/11/24 09:04:04;;;;;;;8.45;2.10;;;;;;;5.30;88.88;99689.63;7395019;19;20344;-63
2023/11/24 09:06:31;;;;;;;6.85;1.80;;;;;;;5.27;87.52;99687.34;7392183;19;20388;-63
2023/11/24 09:08:58;;;;;;;5.75;1.63;;;;;;;5.37;87.59;99686.34;7395485;19;20440;-63
2023/11/24 09:11:26;;;;;;;6.80;1.95;;;;;;;5.41;87.64;99679.78;7395646;19;20372;-63
2023/11/24 09:13:53;;;;;;;7.50;1.95;;;;;;;5.47;88.13;99681.75;7394386;19;20734;-63
2023/11/24 09:16:20;;;;;;;9.32;2.10;;;;;;;5.49;87.59;99670.06;7394388;19;20943;-63
2023/11/24 09:18:47;;;;;;;7.35;2.10;;;;;;;5.55;88.61;99686.16;7392135;19;20372;-63
2023/11/24 09:21:14;;;;;;;6.35;1.50;;;;;;;5.56;87.64;99667.56;7393590;19;20352;-63
2023/11/24 09:23:41;;;;;;;5.20;1.50;;;;;;;5.54;87.26;99661.66;7384781;19;20365;-63
2023/11/24 09:26:09;;;;;;;6.23;1.50;;;;;;;5.59;86.75;99664.63;7392928;19;20773;-62
2023/11/24 09:28:38;;;;;;;4.70;1.23;;;;;;;5.69;85.72;99683.66;7393879;19;20384;-63
2023/11/24 09:31:08;;;;;;;6.15;1.33;;;;;;;5.80;85.58;99655.34;7393311;19;20438;-62
2023/11/24 09:33:37;;;;;;;5.75;1.50;;;;;;;5.83;84.92;99665.53;7390570;19;20726;-63
2023/11/24 09:36:07;;;;;;;3.70;1.15;;;;;;;5.89;85.09;99660.41;7390997;19;20364;-62
2023/11/24 09:38:34;;;;;;;4.82;1.30;;;;;;;5.90;84.55;99654.16;7394073;19;20353;-63
2023/11/24 09:41:08;;;;;;;4.50;1.30;;;;;;;5.92;84.04;99646.91;7390993;19;20368;-63
2023/11/24 09:43:37;;;;;;;6.70;1.20;;;;;;;5.96;83.60;99651.88;7392479;19;21005;-63
2023/11/24 09:46:05;;;;;;;6.07;1.58;;;;;;;6.00;83.97;99645.28;7383494;19;20644;-63
2023/11/24 09:48:33;;;;;;;6.07;1.55;;;;;;;5.99;83.49;99644.44;7383682;19;20384;-63
2023/11/24 09:51:06;;;;;;;5.80;1.70;;;;;;;6.06;83.30;99650.69;7383447;19;20376;-63
2023/11/24 09:53:33;;;;;;;5.80;1.60;;;;;;;6.07;82.63;99625.97;7384708;19;20504;-62
2023/11/24 09:56:02;;;;;;;8.75;1.77;;;;;;;6.08;81.32;99643.44;7386223;19;20384;-63
2023/11/24 09:58:34;;;;;;;5.93;1.40;;;;;;;6.20;81.23;99629.88;7387219;19;20884;-62
2023/11/24 10:01:21;;;;;;;7.05;1.77;;;;;;;6.29;81.50;99613.03;7388092;19;20356;-63
2023/11/24 10:03:51;;;;;;;5.13;1.70;;;;;;;6.29;81.80;99629.66;7391027;19;20373;-62
2023/11/24 10:06:18;;;;;;;6.88;1.55;;;;;;;6.10;82.02;99635.38;7393608;19;20365;-63
2023/11/24 10:08:46;;;;;;;7.65;2.00;;;;;;;5.96;82.75;99626.38;7390870;19;20396;-62
2023/11/24 10:11:15;;;;;;;6.90;1.77;;;;;;;5.92;82.62;99628.47;7393417;19;20364;-62
2023/11/24 10:13:44;;;;;;;6.72;1.88;;;;;;;5.98;83.14;99615.69;7390979;19;20363;-63
2023/11/24 10:16:13;;;;;;;5.82;1.67;;;;;;;5.83;81.24;99628.69;7392336;19;20363;-62
2023/11/24 10:18:41;;;;;;;5.55;1.35;;;;;;;5.75;83.11;99615.56;7391437;19;20355;-62
2023/11/24 10:21:11;;;;;;;5.40;1.40;;;;;;;5.62;84.78;99611.66;7391015;19;20361;-63
2023/11/24 10:23:57;;;;;;;4.68;1.50;;;;;;;5.41;85.74;99641.13;7393137;19;20375;-63
2023/11/24 10:26:25;;;;;;;5.72;1.60;;;;;;;5.31;86.52;99599.25;7392306;19;20791;-63
2023/11/24 10:28:55;;;;;;;6.07;1.50;;;;;;;5.32;87.20;99592.19;7393306;19;20351;-63
2023/11/24 10:31:21;;;;;;;7.50;1.88;;;;;;;5.31;86.49;99583.47;7393745;19;20371;-62
2023/11/24 10:33:49;;;;;;;6.03;1.75;;;;;;;5.29;86.88;99572.31;7389917;19;20376;-62
2023/11/24 10:36:17;;;;;;;5.93;1.67;;;;;;;5.42;87.18;99565.69;7391372;19;20381;-62
2023/11/24 10:38:46;;;;;;;6.03;1.67;;;;;;;5.50;86.76;99563.03;7392611;19;20365;-62
2023/11/24 10:41:22;;;;;;;7.32;1.90;;;;;;;5.64;87.16;99557.06;7393561;19;20372;-62
2023/11/24 10:43:50;;;;;;;7.00;1.77;;;;;;;5.60;86.67;99545.22;7390383;19;20376;-62
2023/11/24 10:46:20;;;;;;;6.30;1.33;;;;;;;5.59;86.63;99580.44;7391998;19;20349;-62
2023/11/24 10:49:06;;;;;;;3.73;1.37;;;;;;;5.49;86.03;99570.09;7391837;19;20356;-62
2023/11/24 10:51:44;;;;;;;6.37;1.40;;;;;;;5.59;86.11;99554.13;7391269;19;20352;-62
2023/11/24 10:54:20;;;;;;;6.28;1.50;;;;;;;5.56;nan;99562.34;7390375;19;20761;-62
2023/11/24 10:56:50;;;;;;;4.43;1.20;;;;;;;5.62;85.53;99587.97;7392069;19;20364;-62
2023/11/24 10:59:19;;;;;;;5.27;1.60;;;;;;;5.69;85.15;99531.03;7389980;19;20360;-61
2023/11/24 11:01:46;;;;;;;5.88;1.60;;;;;;;5.77;84.85;99542.53;7391556;19;20340;-62
2023/11/24 11:04:14;;;;;;;7.45;1.90;;;;;;;5.85;84.98;99532.78;7390729;19;20355;-63
2023/11/24 11:06:52;;;;;;;6.20;1.75;;;;;;;5.90;84.34;99509.38;7392206;19;20385;-62
2023/11/24 11:09:29;;;;;;;5.88;1.67;;;;;;;5.91;83.21;99518.13;7389485;19;20362;-62
2023/11/24 11:12:36;;;;;;;10.50;2.25;;;;;;;6.01;82.95;99510.81;7391946;19;20368;-62
2023/11/24 11:15:04;;;;;;;9.93;2.30;;;;;;;6.15;83.23;99500.56;7391047;19;20868;-62
2023/11/24 11:17:31;;;;;;;7.88;1.90;;;;;;;6.23;81.84;99511.84;7389931;19;20453;-62
2023/11/24 11:20:12;;;;;;;10.60;2.50;;;;;;;6.31;80.87;99506.53;7391567;19;20843;-63
2023/11/24 11:22:40;;;;;;;9.60;2.00;;;;;;;6.25;79.89;99516.94;7390801;19;20352;-62
2023/11/24 11:25:13;;;;;;;5.72;1.70;;;;;;;6.25;79.96;99544.09;7390057;19;20364;-63
2023/11/24 11:27:42;;;;;;;9.13;2.33;;;;;;;6.39;79.59;99481.91;7387765;19;20420;-62
2023/11/24 11:30:18;;;;;;;6.93;2.10;;;;;;;6.46;79.13;99469.69;7390850;19;20341;-62
2023/11/24 11:32:46;;;;;;;10.63;2.97;;;;;;;6.54;78.73;99474.06;7389890;19;20444;-62
2023/11/24 11:35:14;;;;;;;10.35;2.58;;;;;;;6.78;78.16;99475.66;7386749;19;20381;-62
2023/11/24 11:37:41;;;;;;;7.68;2.33;;;;;;;6.80;76.88;99471.03;7389966;19;20413;-63
2023/11/24 11:40:12;;;;;;;9.30;2.35;;;;;;;6.82;76.16;99460.28;7387006;19;20359;-63